sensor_id;sensor_type;location;lat;lon;timestamp;P1;durP1;ratioP1;P2;durP2;ratioP2
12451;SDS011;72521;48.924;12.204;2023-12-07T00:00:32;22.83;;;14.47;;
12451;SDS011;72521;48.924;12.204;2023-12-07T00:05:36;17.07;;;10.07;;
12451;SDS011;72521;48.924;12.204;2023-12-07T00:10:42;17.70;;;10.40;;
12451;SDS011;72521;48.924;12.204;2023-12-07T00:15:47;20.83;;;13.63;;
12451;SDS011;72521;48.924;12.204;2023-12-07T00:20:54;20.93;;;12.03;;
12451;SDS011;72521;48.924;12.204;2023-12-07T00:25:59;24.90;;;13.60;;
12451;SDS011;72521;48.924;12.204;2023-12-07T00:31:03;10.83;;;6.07;;
12451;SDS011;72521;48.924;12.204;2023-12-07T00:36:08;24.27;;;13.77;;
12451;SDS011;72521;48.924;12.204;2023-12-07T00:41:13;9.27;;;5.57;;
12451;SDS011;72521;48.924;12.204;2023-12-07T00:46:17;10.80;;;6.73;;
12451;SDS011;72521;48.924;12.204;2023-12-07T00:51:21;7.17;;;4.53;;
12451;SDS011;72521;48.924;12.204;2023-12-07T00:56:27;23.83;;;13.37;;
12451;SDS011;72521;48.924;12.204;2023-12-07T01:01:31;19.07;;;11.50;;
12451;SDS011;72521;48.924;12.204;2023-12-07T01:06:35;20.37;;;11.17;;
12451;SDS011;72521;48.924;12.204;2023-12-07T01:11:41;9.23;;;5.47;;
12451;SDS011;72521;48.924;12.204;2023-12-07T01:16:45;26.03;;;15.50;;
12451;SDS011;72521;48.924;12.204;2023-12-07T01:21:49;24.70;;;13.27;;
12451;SDS011;72521;48.924;12.204;2023-12-07T01:26:54;23.93;;;13.97;;
12451;SDS011;72521;48.924;12.204;2023-12-07T01:31:58;23.03;;;14.57;;
12451;SDS011;72521;48.924;12.204;2023-12-07T01:37:02;20.90;;;11.50;;
12451;SDS011;72521;48.924;12.204;2023-12-07T01:42:08;24.40;;;14.87;;
12451;SDS011;72521;48.924;12.204;2023-12-07T01:47:13;22.50;;;13.63;;
12451;SDS011;72521;48.924;12.204;2023-12-07T01:52:18;20.83;;;12.73;;
12451;SDS011;72521;48.924;12.204;2023-12-07T01:57:25;18.90;;;11.60;;
12451;SDS011;72521;48.924;12.204;2023-12-07T02:02:30;23.00;;;12.97;;
12451;SDS011;72521;48.924;12.204;2023-12-07T02:07:35;14.73;;;8.23;;
12451;SDS011;72521;48.924;12.204;2023-12-07T02:12:41;22.53;;;13.00;;
12451;SDS011;72521;48.924;12.204;2023-12-07T02:17:47;8.07;;;5.13;;
12451;SDS011;72521;48.924;12.204;2023-12-07T02:23:00;25.60;;;15.97;;
12451;SDS011;72521;48.924;12.204;2023-12-07T02:28:08;25.27;;;15.07;;
12451;SDS011;72521;48.924;12.204;2023-12-07T02:33:12;11.23;;;6.50;;
12451;SDS011;72521;48.924;12.204;2023-12-07T02:38:19;20.10;;;10.87;;
12451;SDS011;72521;48.924;12.204;2023-12-07T02:43:30;19.63;;;11.07;;
12451;SDS011;72521;48.924;12.204;2023-12-07T02:48:38;25.97;;;15.90;;
12451;SDS011;72521;48.924;12.204;2023-12-07T02:53:43;9.30;;;6.47;;
12451;SDS011;72521;48.924;12.204;2023-12-07T02:58:48;23.30;;;13.27;;
12451;SDS011;72521;48.924;12.204;2023-12-07T03:03:52;22.67;;;13.33;;
12451;SDS011;72521;48.924;12.204;2023-12-07T03:08:56;23.47;;;13.90;;
12451;SDS011;72521;48.924;12.204;2023-12-07T03:14:02;23.67;;;13.83;;
12451;SDS011;72521;48.924;12.204;2023-12-07T03:19:07;23.10;;;12.37;;
12451;SDS011;72521;48.924;12.204;2023-12-07T03:24:11;9.90;;;6.63;;
12451;SDS011;72521;48.924;12.204;2023-12-07T03:29:16;21.57;;;12.90;;
12451;SDS011;72521;48.924;12.204;2023-12-07T03:34:21;23.50;;;12.67;;
12451;SDS011;72521;48.924;12.204;2023-12-07T03:39:25;9.43;;;5.33;;
12451;SDS011;72521;48.924;12.204;2023-12-07T03:44:35;25.47;;;11.80;;
12451;SDS011;72521;48.924;12.204;2023-12-07T03:49:39;24.33;;;13.30;;
12451;SDS011;72521;48.924;12.204;2023-12-07T03:54:44;21.63;;;13.13;;
12451;SDS011;72521;48.924;12.204;2023-12-07T03:59:49;21.70;;;12.90;;
12451;SDS011;72521;48.924;12.204;2023-12-07T04:04:55;23.67;;;12.63;;
12451;SDS011;72521;48.924;12.204;2023-12-07T04:10:03;25.90;;;13.30;;
12451;SDS011;72521;48.924;12.204;2023-12-07T04:15:10;17.33;;;10.77;;
12451;SDS011;72521;48.924;12.204;2023-12-07T04:20:18;25.10;;;11.57;;
12451;SDS011;72521;48.924;12.204;2023-12-07T04:25:22;29.30;;;17.43;;
12451;SDS011;72521;48.924;12.204;2023-12-07T04:30:28;10.00;;;6.53;;
12451;SDS011;72521;48.924;12.204;2023-12-07T04:35:32;14.33;;;8.73;;
12451;SDS011;72521;48.924;12.204;2023-12-07T04:40:37;7.53;;;4.53;;
12451;SDS011;72521;48.924;12.204;2023-12-07T04:45:42;29.83;;;16.87;;
12451;SDS011;72521;48.924;12.204;2023-12-07T04:50:47;28.33;;;15.57;;
12451;SDS011;72521;48.924;12.204;2023-12-07T04:55:51;7.77;;;5.87;;
12451;SDS011;72521;48.924;12.204;2023-12-07T05:00:59;12.50;;;6.37;;
12451;SDS011;72521;48.924;12.204;2023-12-07T05:06:03;27.40;;;14.67;;
12451;SDS011;72521;48.924;12.204;2023-12-07T05:11:12;35.80;;;15.83;;
12451;SDS011;72521;48.924;12.204;2023-12-07T05:16:17;29.33;;;12.70;;
12451;SDS011;72521;48.924;12.204;2023-12-07T05:21:21;36.87;;;17.80;;
12451;SDS011;72521;48.924;12.204;2023-12-07T05:26:26;30.40;;;18.03;;
12451;SDS011;72521;48.924;12.204;2023-12-07T05:31:32;29.77;;;16.80;;
12451;SDS011;72521;48.924;12.204;2023-12-07T05:36:37;30.20;;;16.93;;
12451;SDS011;72521;48.924;12.204;2023-12-07T05:41:41;13.17;;;6.67;;
12451;SDS011;72521;48.924;12.204;2023-12-07T05:46:46;26.37;;;14.87;;
12451;SDS011;72521;48.924;12.204;2023-12-07T05:51:50;24.47;;;13.07;;
12451;SDS011;72521;48.924;12.204;2023-12-07T05:56:55;29.37;;;17.47;;
12451;SDS011;72521;48.924;12.204;2023-12-07T06:02:00;29.03;;;17.23;;
12451;SDS011;72521;48.924;12.204;2023-12-07T06:07:07;36.77;;;18.80;;
12451;SDS011;72521;48.924;12.204;2023-12-07T06:12:12;16.23;;;9.47;;
12451;SDS011;72521;48.924;12.204;2023-12-07T06:17:18;36.27;;;17.93;;
12451;SDS011;72521;48.924;12.204;2023-12-07T06:22:22;32.33;;;16.60;;
12451;SDS011;72521;48.924;12.204;2023-12-07T06:27:27;13.97;;;7.20;;
12451;SDS011;72521;48.924;12.204;2023-12-07T06:32:33;24.40;;;13.33;;
12451;SDS011;72521;48.924;12.204;2023-12-07T06:37:37;32.67;;;18.00;;
12451;SDS011;72521;48.924;12.204;2023-12-07T06:42:43;27.23;;;16.00;;
12451;SDS011;72521;48.924;12.204;2023-12-07T06:47:48;36.77;;;19.77;;
12451;SDS011;72521;48.924;12.204;2023-12-07T06:52:53;18.47;;;9.53;;
12451;SDS011;72521;48.924;12.204;2023-12-07T06:57:57;17.27;;;9.70;;
12451;SDS011;72521;48.924;12.204;2023-12-07T07:03:03;15.70;;;8.50;;
12451;SDS011;72521;48.924;12.204;2023-12-07T07:08:08;21.63;;;12.07;;
12451;SDS011;72521;48.924;12.204;2023-12-07T07:13:12;35.37;;;20.57;;
12451;SDS011;72521;48.924;12.204;2023-12-07T07:18:20;39.27;;;16.27;;
12451;SDS011;72521;48.924;12.204;2023-12-07T07:23:26;20.93;;;11.33;;
12451;SDS011;72521;48.924;12.204;2023-12-07T07:28:30;33.07;;;19.27;;
12451;SDS011;72521;48.924;12.204;2023-12-07T07:33:36;32.90;;;19.07;;
12451;SDS011;72521;48.924;12.204;2023-12-07T07:38:40;45.43;;;21.20;;
12451;SDS011;72521;48.924;12.204;2023-12-07T07:43:45;27.00;;;14.70;;
12451;SDS011;72521;48.924;12.204;2023-12-07T07:48:51;25.23;;;13.77;;
12451;SDS011;72521;48.924;12.204;2023-12-07T07:53:55;20.80;;;11.33;;
12451;SDS011;72521;48.924;12.204;2023-12-07T07:59:00;24.43;;;13.57;;
12451;SDS011;72521;48.924;12.204;2023-12-07T08:04:05;30.90;;;18.70;;
12451;SDS011;72521;48.924;12.204;2023-12-07T08:09:10;24.57;;;13.50;;
12451;SDS011;72521;48.924;12.204;2023-12-07T08:14:14;24.03;;;13.53;;
12451;SDS011;72521;48.924;12.204;2023-12-07T08:19:20;29.13;;;17.30;;
12451;SDS011;72521;48.924;12.204;2023-12-07T08:24:24;11.60;;;7.50;;
12451;SDS011;72521;48.924;12.204;2023-12-07T08:29:31;13.40;;;7.80;;
12451;SDS011;72521;48.924;12.204;2023-12-07T08:34:36;30.97;;;19.87;;
12451;SDS011;72521;48.924;12.204;2023-12-07T08:39:40;25.80;;;15.93;;
12451;SDS011;72521;48.924;12.204;2023-12-07T08:44:44;31.43;;;18.47;;
12451;SDS011;72521;48.924;12.204;2023-12-07T08:49:50;32.93;;;19.50;;
12451;SDS011;72521;48.924;12.204;2023-12-07T08:54:54;31.60;;;19.70;;
12451;SDS011;72521;48.924;12.204;2023-12-07T08:59:58;29.17;;;18.93;;
12451;SDS011;72521;48.924;12.204;2023-12-07T09:05:04;27.57;;;17.13;;
12451;SDS011;72521;48.924;12.204;2023-12-07T09:10:10;26.30;;;18.00;;
12451;SDS011;72521;48.924;12.204;2023-12-07T09:15:14;25.27;;;17.57;;
12451;SDS011;72521;48.924;12.204;2023-12-07T09:20:20;24.33;;;16.37;;
12451;SDS011;72521;48.924;12.204;2023-12-07T09:25:24;24.43;;;17.47;;
12451;SDS011;72521;48.924;12.204;2023-12-07T09:30:29;21.50;;;16.10;;
12451;SDS011;72521;48.924;12.204;2023-12-07T09:35:36;22.60;;;16.23;;
12451;SDS011;72521;48.924;12.204;2023-12-07T09:40:41;21.58;;;15.63;;
12451;SDS011;72521;48.924;12.204;2023-12-07T09:45:46;21.17;;;15.18;;
12451;SDS011;72521;48.924;12.204;2023-12-07T09:50:53;19.23;;;13.93;;
12451;SDS011;72521;48.924;12.204;2023-12-07T09:55:59;24.10;;;15.85;;
12451;SDS011;72521;48.924;12.204;2023-12-07T10:01:04;24.60;;;16.13;;
12451;SDS011;72521;48.924;12.204;2023-12-07T10:06:09;26.88;;;16.90;;
12451;SDS011;72521;48.924;12.204;2023-12-07T10:11:14;27.35;;;17.27;;
12451;SDS011;72521;48.924;12.204;2023-12-07T10:16:20;26.15;;;17.63;;
12451;SDS011;72521;48.924;12.204;2023-12-07T10:21:32;26.67;;;16.90;;
12451;SDS011;72521;48.924;12.204;2023-12-07T10:26:37;20.92;;;15.05;;
12451;SDS011;72521;48.924;12.204;2023-12-07T10:31:41;20.50;;;14.55;;
12451;SDS011;72521;48.924;12.204;2023-12-07T10:36:47;15.95;;;12.68;;
12451;SDS011;72521;48.924;12.204;2023-12-07T10:41:55;17.25;;;13.60;;
12451;SDS011;72521;48.924;12.204;2023-12-07T10:47:04;16.40;;;14.50;;
12451;SDS011;72521;48.924;12.204;2023-12-07T10:52:13;18.65;;;15.27;;
12451;SDS011;72521;48.924;12.204;2023-12-07T10:57:19;20.05;;;16.27;;
12451;SDS011;72521;48.924;12.204;2023-12-07T11:02:24;26.83;;;16.55;;
12451;SDS011;72521;48.924;12.204;2023-12-07T11:07:34;19.83;;;15.73;;
12451;SDS011;72521;48.924;12.204;2023-12-07T11:12:54;19.42;;;15.15;;
12451;SDS011;72521;48.924;12.204;2023-12-07T11:18:11;19.38;;;15.75;;
12451;SDS011;72521;48.924;12.204;2023-12-07T11:23:17;21.95;;;17.15;;
12451;SDS011;72521;48.924;12.204;2023-12-07T11:28:34;25.83;;;17.67;;
12451;SDS011;72521;48.924;12.204;2023-12-07T11:33:39;25.50;;;18.58;;
12451;SDS011;72521;48.924;12.204;2023-12-07T11:44:32;24.27;;;17.48;;
12451;SDS011;72521;48.924;12.204;2023-12-07T11:49:37;25.63;;;17.88;;
12451;SDS011;72521;48.924;12.204;2023-12-07T11:54:46;24.02;;;17.33;;
12451;SDS011;72521;48.924;12.204;2023-12-07T11:59:52;27.33;;;18.98;;
12451;SDS011;72521;48.924;12.204;2023-12-07T12:04:56;25.83;;;17.98;;
12451;SDS011;72521;48.924;12.204;2023-12-07T12:10:03;32.88;;;19.95;;
12451;SDS011;72521;48.924;12.204;2023-12-07T12:15:08;32.40;;;20.20;;
12451;SDS011;72521;48.924;12.204;2023-12-07T12:20:13;28.93;;;18.30;;
12451;SDS011;72521;48.924;12.204;2023-12-07T12:25:20;31.57;;;19.07;;
12451;SDS011;72521;48.924;12.204;2023-12-07T12:30:29;29.60;;;19.13;;
12451;SDS011;72521;48.924;12.204;2023-12-07T12:35:34;26.77;;;19.17;;
12451;SDS011;72521;48.924;12.204;2023-12-07T12:40:39;25.87;;;16.93;;
12451;SDS011;72521;48.924;12.204;2023-12-07T12:45:44;24.87;;;17.10;;
12451;SDS011;72521;48.924;12.204;2023-12-07T12:51:08;33.33;;;19.90;;
12451;SDS011;72521;48.924;12.204;2023-12-07T12:56:17;27.20;;;17.40;;
12451;SDS011;72521;48.924;12.204;2023-12-07T13:01:23;27.17;;;18.43;;
12451;SDS011;72521;48.924;12.204;2023-12-07T13:06:27;27.43;;;17.27;;
12451;SDS011;72521;48.924;12.204;2023-12-07T13:11:33;29.07;;;18.67;;
12451;SDS011;72521;48.924;12.204;2023-12-07T13:16:37;28.87;;;19.43;;
12451;SDS011;72521;48.924;12.204;2023-12-07T13:21:42;28.23;;;19.17;;
12451;SDS011;72521;48.924;12.204;2023-12-07T13:26:49;28.97;;;18.07;;
12451;SDS011;72521;48.924;12.204;2023-12-07T13:31:53;34.43;;;20.30;;
12451;SDS011;72521;48.924;12.204;2023-12-07T13:37:00;34.50;;;21.67;;
12451;SDS011;72521;48.924;12.204;2023-12-07T13:42:06;36.30;;;21.53;;
12451;SDS011;72521;48.924;12.204;2023-12-07T13:47:10;34.80;;;20.47;;
12451;SDS011;72521;48.924;12.204;2023-12-07T13:52:14;34.03;;;21.97;;
12451;SDS011;72521;48.924;12.204;2023-12-07T13:57:21;32.73;;;21.57;;
12451;SDS011;72521;48.924;12.204;2023-12-07T14:02:27;48.57;;;29.43;;
12451;SDS011;72521;48.924;12.204;2023-12-07T14:07:31;35.13;;;21.90;;
12451;SDS011;72521;48.924;12.204;2023-12-07T14:12:37;31.63;;;19.37;;
12451;SDS011;72521;48.924;12.204;2023-12-07T14:17:43;32.93;;;21.60;;
12451;SDS011;72521;48.924;12.204;2023-12-07T14:22:54;30.00;;;18.87;;
12451;SDS011;72521;48.924;12.204;2023-12-07T14:28:00;35.33;;;20.40;;
12451;SDS011;72521;48.924;12.204;2023-12-07T14:33:04;35.50;;;20.70;;
12451;SDS011;72521;48.924;12.204;2023-12-07T14:38:08;33.67;;;19.60;;
12451;SDS011;72521;48.924;12.204;2023-12-07T14:43:16;35.97;;;21.43;;
12451;SDS011;72521;48.924;12.204;2023-12-07T14:48:23;38.73;;;24.20;;
12451;SDS011;72521;48.924;12.204;2023-12-07T14:53:27;36.47;;;22.77;;
12451;SDS011;72521;48.924;12.204;2023-12-07T14:58:36;36.30;;;20.67;;
12451;SDS011;72521;48.924;12.204;2023-12-07T15:03:41;35.63;;;22.07;;
12451;SDS011;72521;48.924;12.204;2023-12-07T15:08:46;33.17;;;20.50;;
12451;SDS011;72521;48.924;12.204;2023-12-07T15:13:52;34.20;;;21.13;;
12451;SDS011;72521;48.924;12.204;2023-12-07T15:18:56;42.60;;;22.70;;
12451;SDS011;72521;48.924;12.204;2023-12-07T15:24:00;47.17;;;23.20;;
12451;SDS011;72521;48.924;12.204;2023-12-07T15:29:06;41.10;;;21.63;;
12451;SDS011;72521;48.924;12.204;2023-12-07T15:34:10;38.50;;;21.37;;
12451;SDS011;72521;48.924;12.204;2023-12-07T15:39:29;38.50;;;21.97;;
12451;SDS011;72521;48.924;12.204;2023-12-07T15:44:35;33.13;;;19.83;;
12451;SDS011;72521;48.924;12.204;2023-12-07T15:49:40;42.87;;;22.50;;
12451;SDS011;72521;48.924;12.204;2023-12-07T15:54:45;49.00;;;25.33;;
12451;SDS011;72521;48.924;12.204;2023-12-07T15:59:50;33.70;;;19.73;;
12451;SDS011;72521;48.924;12.204;2023-12-07T16:04:55;43.07;;;25.33;;
12451;SDS011;72521;48.924;12.204;2023-12-07T16:10:01;43.57;;;26.57;;
12451;SDS011;72521;48.924;12.204;2023-12-07T16:15:08;46.93;;;27.53;;
12451;SDS011;72521;48.924;12.204;2023-12-07T16:20:12;42.83;;;25.47;;
12451;SDS011;72521;48.924;12.204;2023-12-07T16:25:17;41.63;;;27.00;;
12451;SDS011;72521;48.924;12.204;2023-12-07T16:30:25;49.00;;;29.23;;
12451;SDS011;72521;48.924;12.204;2023-12-07T16:35:43;49.17;;;28.80;;
12451;SDS011;72521;48.924;12.204;2023-12-07T16:40:48;37.10;;;21.97;;
12451;SDS011;72521;48.924;12.204;2023-12-07T16:45:55;36.90;;;20.97;;
12451;SDS011;72521;48.924;12.204;2023-12-07T16:51:00;33.53;;;18.97;;
12451;SDS011;72521;48.924;12.204;2023-12-07T16:56:06;38.30;;;19.63;;
12451;SDS011;72521;48.924;12.204;2023-12-07T17:01:12;38.83;;;22.27;;
12451;SDS011;72521;48.924;12.204;2023-12-07T17:06:19;128.03;;;21.20;;
12451;SDS011;72521;48.924;12.204;2023-12-07T17:11:23;68.73;;;18.17;;
12451;SDS011;72521;48.924;12.204;2023-12-07T17:16:28;121.30;;;16.30;;
12451;SDS011;72521;48.924;12.204;2023-12-07T17:21:32;110.07;;;20.63;;
12451;SDS011;72521;48.924;12.204;2023-12-07T17:26:36;106.03;;;19.87;;
12451;SDS011;72521;48.924;12.204;2023-12-07T17:31:55;85.13;;;20.00;;
12451;SDS011;72521;48.924;12.204;2023-12-07T17:37:00;86.07;;;23.53;;
12451;SDS011;72521;48.924;12.204;2023-12-07T17:42:05;97.27;;;20.57;;
12451;SDS011;72521;48.924;12.204;2023-12-07T17:47:13;98.53;;;20.07;;
12451;SDS011;72521;48.924;12.204;2023-12-07T17:52:18;76.43;;;20.87;;
12451;SDS011;72521;48.924;12.204;2023-12-07T17:57:23;65.57;;;20.27;;
12451;SDS011;72521;48.924;12.204;2023-12-07T18:02:29;71.17;;;16.87;;
12451;SDS011;72521;48.924;12.204;2023-12-07T18:07:33;71.57;;;18.83;;
12451;SDS011;72521;48.924;12.204;2023-12-07T18:12:37;44.10;;;18.43;;
12451;SDS011;72521;48.924;12.204;2023-12-07T18:17:44;60.47;;;21.27;;
12451;SDS011;72521;48.924;12.204;2023-12-07T18:22:49;35.63;;;17.87;;
12451;SDS011;72521;48.924;12.204;2023-12-07T18:27:54;65.33;;;21.37;;
12451;SDS011;72521;48.924;12.204;2023-12-07T18:32:59;72.57;;;22.97;;
12451;SDS011;72521;48.924;12.204;2023-12-07T18:38:03;48.23;;;21.23;;
12451;SDS011;72521;48.924;12.204;2023-12-07T18:43:09;59.70;;;20.43;;
12451;SDS011;72521;48.924;12.204;2023-12-07T18:48:15;109.10;;;27.63;;
12451;SDS011;72521;48.924;12.204;2023-12-07T18:53:19;72.57;;;23.13;;
12451;SDS011;72521;48.924;12.204;2023-12-07T18:58:23;81.00;;;24.73;;
12451;SDS011;72521;48.924;12.204;2023-12-07T19:03:30;76.87;;;27.33;;
12451;SDS011;72521;48.924;12.204;2023-12-07T19:08:34;61.73;;;25.60;;
12451;SDS011;72521;48.924;12.204;2023-12-07T19:13:38;90.07;;;29.13;;
12451;SDS011;72521;48.924;12.204;2023-12-07T19:18:44;58.67;;;25.53;;
12451;SDS011;72521;48.924;12.204;2023-12-07T19:23:48;51.53;;;16.63;;
12451;SDS011;72521;48.924;12.204;2023-12-07T19:28:52;51.47;;;19.20;;
12451;SDS011;72521;48.924;12.204;2023-12-07T19:33:58;69.13;;;22.43;;
12451;SDS011;72521;48.924;12.204;2023-12-07T19:39:03;57.90;;;21.30;;
12451;SDS011;72521;48.924;12.204;2023-12-07T19:44:09;55.53;;;19.80;;
12451;SDS011;72521;48.924;12.204;2023-12-07T19:49:16;74.03;;;22.63;;
12451;SDS011;72521;48.924;12.204;2023-12-07T19:54:20;46.50;;;20.10;;
12451;SDS011;72521;48.924;12.204;2023-12-07T19:59:26;53.13;;;21.50;;
12451;SDS011;72521;48.924;12.204;2023-12-07T20:04:32;54.07;;;19.23;;
12451;SDS011;72521;48.924;12.204;2023-12-07T20:09:37;45.07;;;17.77;;
12451;SDS011;72521;48.924;12.204;2023-12-07T20:14:42;60.33;;;17.07;;
12451;SDS011;72521;48.924;12.204;2023-12-07T20:19:47;88.30;;;19.67;;
12451;SDS011;72521;48.924;12.204;2023-12-07T20:24:51;65.30;;;19.50;;
12451;SDS011;72521;48.924;12.204;2023-12-07T20:29:55;71.00;;;18.17;;
12451;SDS011;72521;48.924;12.204;2023-12-07T20:35:07;56.10;;;16.57;;
12451;SDS011;72521;48.924;12.204;2023-12-07T20:40:11;60.63;;;17.37;;
12451;SDS011;72521;48.924;12.204;2023-12-07T20:45:15;51.40;;;15.83;;
12451;SDS011;72521;48.924;12.204;2023-12-07T20:50:21;48.83;;;16.83;;
12451;SDS011;72521;48.924;12.204;2023-12-07T20:55:25;39.00;;;14.87;;
12451;SDS011;72521;48.924;12.204;2023-12-07T21:00:30;57.00;;;15.07;;
12451;SDS011;72521;48.924;12.204;2023-12-07T21:05:37;43.97;;;16.10;;
12451;SDS011;72521;48.924;12.204;2023-12-07T21:10:42;36.57;;;15.13;;
12451;SDS011;72521;48.924;12.204;2023-12-07T21:15:46;72.30;;;16.40;;
12451;SDS011;72521;48.924;12.204;2023-12-07T21:20:52;74.27;;;17.27;;
12451;SDS011;72521;48.924;12.204;2023-12-07T21:25:56;48.43;;;15.63;;
12451;SDS011;72521;48.924;12.204;2023-12-07T21:31:02;50.87;;;15.30;;
12451;SDS011;72521;48.924;12.204;2023-12-07T21:36:09;54.53;;;15.37;;
12451;SDS011;72521;48.924;12.204;2023-12-07T21:41:13;60.47;;;15.23;;
12451;SDS011;72521;48.924;12.204;2023-12-07T21:46:17;60.53;;;17.63;;
12451;SDS011;72521;48.924;12.204;2023-12-07T21:51:23;40.20;;;13.83;;
12451;SDS011;72521;48.924;12.204;2023-12-07T21:56:27;37.63;;;14.10;;
12451;SDS011;72521;48.924;12.204;2023-12-07T22:01:32;37.47;;;14.27;;
12451;SDS011;72521;48.924;12.204;2023-12-07T22:06:37;27.73;;;12.60;;
12451;SDS011;72521;48.924;12.204;2023-12-07T22:11:42;25.47;;;12.67;;
12451;SDS011;72521;48.924;12.204;2023-12-07T22:16:47;40.33;;;12.20;;
12451;SDS011;72521;48.924;12.204;2023-12-07T22:21:52;33.63;;;12.23;;
12451;SDS011;72521;48.924;12.204;2023-12-07T22:26:57;34.30;;;11.70;;
12451;SDS011;72521;48.924;12.204;2023-12-07T22:32:01;47.10;;;14.57;;
12451;SDS011;72521;48.924;12.204;2023-12-07T22:37:07;35.97;;;13.20;;
12451;SDS011;72521;48.924;12.204;2023-12-07T22:42:11;26.47;;;11.57;;
12451;SDS011;72521;48.924;12.204;2023-12-07T22:47:15;44.67;;;11.87;;
12451;SDS011;72521;48.924;12.204;2023-12-07T22:52:21;40.07;;;13.60;;
12451;SDS011;72521;48.924;12.204;2023-12-07T22:57:25;49.37;;;11.87;;
12451;SDS011;72521;48.924;12.204;2023-12-07T23:02:29;37.00;;;11.10;;
12451;SDS011;72521;48.924;12.204;2023-12-07T23:07:35;42.97;;;12.80;;
12451;SDS011;72521;48.924;12.204;2023-12-07T23:12:40;58.57;;;14.07;;
12451;SDS011;72521;48.924;12.204;2023-12-07T23:17:44;31.00;;;13.13;;
12451;SDS011;72521;48.924;12.204;2023-12-07T23:22:50;41.03;;;13.17;;
12451;SDS011;72521;48.924;12.204;2023-12-07T23:27:54;31.20;;;13.90;;
12451;SDS011;72521;48.924;12.204;2023-12-07T23:32:58;46.60;;;13.40;;
12451;SDS011;72521;48.924;12.204;2023-12-07T23:38:04;27.17;;;11.47;;
12451;SDS011;72521;48.924;12.204;2023-12-07T23:43:09;26.60;;;12.07;;
12451;SDS011;72521;48.924;12.204;2023-12-07T23:48:14;28.60;;;10.57;;
12451;SDS011;72521;48.924;12.204;2023-12-07T23:53:21;28.57;;;10.90;;
12451;SDS011;72521;48.924;12.204;2023-12-07T23:58:25;22.77;;;11.70;;
